createdAt,value
2022-10-06T00:03:49.453Z,879.17029
2022-10-06T00:18:51.711Z,794.83972
2022-10-06T00:33:54.035Z,634.90247
2022-10-06T00:48:56.196Z,439.10046
2022-10-06T01:03:58.580Z,189.98608
2022-10-06T01:19:00.909Z,50.40447
2022-10-06T01:34:03.285Z,9.69317
2022-10-06T01:49:05.544Z,0.96932
2022-10-06T02:04:07.903Z,0
2022-10-06T02:19:10.240Z,0
2022-10-06T02:34:12.751Z,0
2022-10-06T02:49:15.047Z,0
2022-10-06T03:04:17.352Z,0
2022-10-06T03:19:19.641Z,0
2022-10-06T03:34:21.898Z,0
2022-10-06T03:49:24.342Z,0
2022-10-06T04:04:26.850Z,0
2022-10-06T04:19:29.166Z,0
2022-10-06T04:34:31.441Z,0
2022-10-06T04:49:33.739Z,0
2022-10-06T05:04:35.987Z,0
2022-10-06T05:19:38.305Z,0
2022-10-06T05:34:40.613Z,0
2022-10-06T05:49:42.902Z,0
2022-10-06T06:04:45.218Z,0
2022-10-06T06:19:47.588Z,0
2022-10-06T06:34:49.865Z,0
2022-10-06T06:49:52.184Z,0
2022-10-06T07:04:54.606Z,0
2022-10-06T07:19:56.897Z,0
2022-10-06T07:34:59.365Z,0
2022-10-06T07:50:01.720Z,0
2022-10-06T08:05:04.282Z,0
2022-10-06T08:20:06.559Z,0
2022-10-06T08:35:08.881Z,0
2022-10-06T08:50:11.184Z,0
2022-10-06T09:05:13.459Z,0
2022-10-06T09:20:15.814Z,0
2022-10-06T09:35:18.166Z,0
2022-10-06T09:50:20.549Z,0
2022-10-06T10:05:22.865Z,0
2022-10-06T10:20:25.232Z,0
2022-10-06T10:35:27.503Z,0
2022-10-06T10:50:29.827Z,0
2022-10-06T11:05:32.345Z,0
2022-10-06T11:20:34.625Z,0
2022-10-06T11:35:36.893Z,0
2022-10-06T11:50:39.195Z,0
2022-10-06T12:05:56.591Z,0
2022-10-06T12:20:59.600Z,0
2022-10-06T12:36:02.019Z,0
2022-10-06T12:51:04.304Z,0
2022-10-06T13:06:06.571Z,0
2022-10-06T13:21:08.995Z,0
2022-10-06T13:36:11.334Z,2.90795
2022-10-06T13:51:13.633Z,39.74199
2022-10-06T14:06:15.873Z,126.01118
2022-10-06T14:21:18.167Z,302.42682
2022-10-06T14:36:20.493Z,477.87314
2022-10-06T14:51:22.786Z,652.35016
2022-10-06T15:06:25.140Z,1248.47998
2022-10-06T15:21:27.435Z,1692.427
2022-10-06T15:36:29.757Z,1736.04626
2022-10-06T15:51:32.010Z,2654.9585
2022-10-06T16:06:34.329Z,7148.71094
2022-10-06T16:21:36.864Z,6036.9043
2022-10-06T16:36:39.218Z,11165.55957
2022-10-06T16:51:41.806Z,4238.82178
2022-10-06T17:06:44.235Z,8055.99121
2022-10-06T17:21:47.685Z,6066.95312
2022-10-06T17:36:51.692Z,5000.70508
2022-10-06T17:51:54.199Z,2581.29053
2022-10-06T18:06:56.474Z,5232.37158
2022-10-06T18:21:58.766Z,5524.13623
2022-10-06T18:37:01.039Z,5431.08154
2022-10-06T18:52:03.362Z,5351.59766
2022-10-06T19:07:05.659Z,5469.85449
2022-10-06T19:22:07.944Z,4957.08594
2022-10-06T19:37:10.391Z,5739.32422
2022-10-06T19:52:12.740Z,5591.01904
2022-10-06T20:07:15.048Z,5430.1123
2022-10-06T20:22:17.371Z,5265.32861
2022-10-06T20:37:19.710Z,3954.81226
2022-10-06T20:52:22.080Z,4179.69385
2022-10-06T21:07:24.516Z,4630.42578
2022-10-06T21:22:27.145Z,4435.59326
2022-10-06T21:37:29.507Z,3967.41333
2022-10-06T21:52:31.802Z,3579.68677
2022-10-06T22:07:34.034Z,3279.19849
2022-10-06T22:22:36.413Z,2716.02539
2022-10-06T22:37:38.766Z,2667.55957
2022-10-06T22:52:40.990Z,2530.88599
2022-10-06T23:07:43.511Z,2480.48145
2022-10-06T23:22:45.938Z,2281.77148
2022-10-06T23:37:48.384Z,1447.18982
2022-10-06T23:52:50.706Z,1237.8175
